Time;durP1;ratioP1;P1;durP2;ratioP2;P2;SDS_P1;SDS_P2;PMS_P1;PMS_P2;Temp;Humidity;BMP_temperature;BMP_pressure;BME280_temperature;BME280_humidity;BME280_pressure;Samples;Min_cycle;Max_cycle;Signal;HPM_P1;HPM_P2
2023/10/24 00:00:38;;;;;;;25.75;15.70;;;;;;;;;;5101588;27;20391;-80
2023/10/24 00:03:04;;;;;;;22.92;16.08;;;;;;;;;;5086993;27;20780;-80
2023/10/24 00:05:30;;;;;;;24.27;15.43;;;;;;;;;;5116061;27;20409;-79
2023/10/24 00:07:56;;;;;;;23.17;15.32;;;;;;;;;;5117105;27;20437;-79
2023/10/24 00:10:23;;;;;;;24.77;15.60;;;10.30;99.90;;;;;;5117142;27;20398;-79
2023/10/24 00:12:50;;;;;;;24.88;15.48;;;;;;;;;;5105854;27;20779;-79
2023/10/24 00:15:16;;;;;;;23.67;15.25;;;;;;;;;;5126754;27;20415;-79
2023/10/24 00:17:42;;;;;;;22.08;15.02;;;;;;;;;;5095064;27;20394;-79
2023/10/24 00:20:09;;;;;;;24.17;15.98;;;;;;;;;;5103813;27;20756;-80
2023/10/24 00:22:35;;;;;;;24.58;15.82;;;;;;;;;;5107664;27;20462;-80
2023/10/24 00:25:01;;;;;;;26.70;15.90;;;;;;;;;;5097999;27;20393;-79
2023/10/24 00:27:27;;;;;;;23.65;15.85;;;;;;;;;;5107836;27;20407;-79
2023/10/24 00:29:53;;;;;;;24.15;15.93;;;10.20;99.90;;;;;;5097174;27;20491;-79
2023/10/24 00:32:20;;;;;;;23.73;15.07;;;;;;;;;;5120927;27;20499;-79
2023/10/24 00:34:46;;;;;;;26.58;15.85;;;;;;;;;;5120805;27;20911;-79
2023/10/24 00:37:12;;;;;;;26.83;17.00;;;;;;;;;;5079563;27;20403;-79
2023/10/24 00:39:38;;;;;;;24.63;16.20;;;;;;;;;;5103333;27;20802;-79
2023/10/24 00:42:05;;;;;;;24.43;16.37;;;;;;;;;;5101224;27;20537;-82
2023/10/24 00:44:32;;;;;;;24.60;16.47;;;;;;;;;;5131104;27;20418;-81
2023/10/24 00:46:59;;;;;;;25.25;16.70;;;;;;;;;;5113347;27;20398;-79
2023/10/24 00:49:25;;;;;;;29.45;17.58;;;;;;;;;;5106440;27;20498;-80
2023/10/24 00:51:54;;;;;;;30.45;18.30;;;10.10;99.90;;;;;;5098507;27;20427;-80
2023/10/24 00:54:20;;;;;;;29.83;18.10;;;;;;;;;;5104015;27;20416;-80
2023/10/24 00:56:48;;;;;;;27.10;18.00;;;10.20;99.90;;;;;;5132019;27;20402;-79
2023/10/24 00:59:15;;;;;;;28.98;18.45;;;10.20;99.90;;;;;;5099564;27;20426;-79
2023/10/24 01:01:41;;;;;;;30.50;19.48;;;;;;;;;;5114444;27;20405;-79
2023/10/24 01:04:07;;;;;;;21.87;12.20;;;;;;;;;;5101779;27;20414;-79
2023/10/24 01:06:33;;;;;;;30.50;18.98;;;;;;;;;;5082335;27;20912;-79
2023/10/24 01:08:59;;;;;;;32.33;19.08;;;;;;;;;;5080843;27;20902;-79
2023/10/24 01:11:25;;;;;;;24.05;13.63;;;;;;;;;;5104963;27;20816;-80
2023/10/24 01:13:52;;;;;;;22.45;11.77;;;;;;;;;;5060600;28;20418;-80
2023/10/24 01:16:18;;;;;;;28.30;12.77;;;;;;;;;;5075248;28;20429;-80
2023/10/24 01:18:44;;;;;;;21.67;12.50;;;;;;;;;;5098471;27;20404;-80
2023/10/24 01:21:10;;;;;;;21.98;12.45;;;;;;;;;;5108412;28;20416;-79
2023/10/24 01:23:36;;;;;;;23.77;12.80;;;;;;;;;;5114115;27;20403;-79
2023/10/24 01:26:03;;;;;;;23.17;12.93;;;;;;;;;;5113105;27;20491;-79
2023/10/24 01:28:29;;;;;;;24.30;13.00;;;10.10;99.90;;;;;;5118021;27;20840;-79
2023/10/24 01:30:55;;;;;;;24.88;14.02;;;;;;;;;;5084386;28;20688;-79
2023/10/24 01:33:22;;;;;;;26.95;14.65;;;;;;;;;;5110152;28;20480;-79
2023/10/24 01:35:48;;;;;;;24.67;13.88;;;;;;;;;;5112184;27;20434;-80
2023/10/24 01:38:15;;;;;;;26.98;14.13;;;;;;;;;;5097033;27;20391;-79
2023/10/24 01:40:41;;;;;;;25.33;14.30;;;;;;;;;;5078755;28;20493;-79
2023/10/24 01:43:07;;;;;;;28.75;15.73;;;;;;;;;;5091811;28;20758;-80
2023/10/24 01:45:33;;;;;;;26.38;14.57;;;;;;;;;;5119953;27;20766;-79
2023/10/24 01:47:59;;;;;;;30.17;15.05;;;;;;;;;;5113626;27;20411;-79
2023/10/24 01:50:25;;;;;;;29.23;14.18;;;;;;;;;;5085969;28;20424;-79
2023/10/24 01:52:51;;;;;;;27.20;15.00;;;;;;;;;;5102662;27;20422;-79
2023/10/24 01:55:17;;;;;;;27.13;14.60;;;;;;;;;;5091459;28;20922;-79
2023/10/24 01:57:44;;;;;;;26.85;14.35;;;;;;;;;;5121376;27;20486;-78
2023/10/24 02:00:10;;;;;;;29.58;15.45;;;;;;;;;;5130787;27;20394;-79
2023/10/24 02:02:36;;;;;;;27.23;14.57;;;;;;;;;;5096926;28;20415;-79
2023/10/24 02:05:02;;;;;;;26.80;14.90;;;;;;;;;;5116738;27;20412;-79
2023/10/24 02:07:28;;;;;;;28.65;14.40;;;;;;;;;;5083874;28;20907;-79
2023/10/24 02:09:55;;;;;;;26.60;13.90;;;;;;;;;;5077323;28;20520;-79
2023/10/24 02:12:23;;;;;;;27.27;14.18;;;10.10;99.90;;;;;;5098938;27;20426;-78
2023/10/24 02:14:49;;;;;;;25.13;14.05;;;;;;;;;;5104440;27;20904;-79
2023/10/24 02:17:15;;;;;;;25.37;13.20;;;;;;;;;;5106431;27;20457;-79
2023/10/24 02:19:41;;;;;;;26.67;14.45;;;;;;;;;;5103816;27;20399;-79
2023/10/24 02:22:07;;;;;;;23.80;13.13;;;;;;;;;;5108751;27;20503;-79
2023/10/24 02:24:33;;;;;;;22.42;12.85;;;;;;;;;;5118698;27;20408;-79
2023/10/24 02:26:59;;;;;;;23.83;13.07;;;;;;;;;;5097656;27;20462;-79
2023/10/24 02:29:25;;;;;;;24.25;12.85;;;;;;;;;;5116057;27;20803;-79
2023/10/24 02:31:51;;;;;;;23.58;13.27;;;;;;;;;;5113254;28;20398;-79
2023/10/24 02:34:17;;;;;;;24.63;13.17;;;;;;;;;;5085223;27;20430;-79
2023/10/24 02:36:44;;;;;;;23.13;12.50;;;;;;;;;;5100590;28;20423;-79
2023/10/24 02:39:10;;;;;;;22.90;12.98;;;;;;;;;;5101225;28;20477;-79
2023/10/24 02:41:36;;;;;;;23.63;12.32;;;;;;;;;;5094672;28;20752;-80
2023/10/24 02:44:02;;;;;;;21.83;12.13;;;;;;;;;;5081523;27;20907;-79
2023/10/24 02:46:28;;;;;;;23.23;12.65;;;;;;;;;;5113456;28;20405;-79
2023/10/24 02:48:54;;;;;;;22.42;12.75;;;;;;;;;;5100350;27;20905;-79
2023/10/24 02:51:20;;;;;;;24.55;12.52;;;10.50;99.90;;;;;;5097950;27;20391;-80
2023/10/24 02:53:46;;;;;;;23.17;12.17;;;10.30;99.90;;;;;;5117951;27;20481;-79
2023/10/24 02:56:12;;;;;;;23.38;12.52;;;;;;;;;;5085597;27;20396;-80
2023/10/24 02:58:38;;;;;;;23.27;12.32;;;;;;;;;;5099125;28;20416;-79
2023/10/24 03:01:05;;;;;;;22.88;12.90;;;;;;;;;;5082251;28;20959;-79
2023/10/24 03:03:32;;;;;;;25.75;12.70;;;;;;;;;;5098106;27;20918;-79
2023/10/24 03:05:58;;;;;;;24.08;12.35;;;;;;;;;;5113424;27;21033;-79
2023/10/24 03:08:24;;;;;;;22.23;12.77;;;;;;;;;;5105638;28;20432;-79
2023/10/24 03:10:50;;;;;;;29.10;13.88;;;;;;;;;;5110240;28;20407;-79
2023/10/24 03:13:16;;;;;;;25.13;13.05;;;;;;;;;;5080896;28;20423;-79
2023/10/24 03:15:43;;;;;;;22.95;12.75;;;;;;;;;;5111218;27;21011;-79
2023/10/24 03:18:09;;;;;;;24.03;13.70;;;;;;;;;;5120481;27;20476;-80
2023/10/24 03:20:35;;;;;;;23.00;12.93;;;;;;;;;;5118695;27;20398;-80
2023/10/24 03:23:02;;;;;;;26.00;13.00;;;;;;;;;;5123198;27;20394;-80
2023/10/24 03:25:28;;;;;;;22.67;12.47;;;;;;;;;;5101546;28;20411;-79
2023/10/24 03:27:54;;;;;;;24.67;12.50;;;10.50;99.90;;;;;;5082639;28;20404;-80
2023/10/24 03:30:21;;;;;;;22.25;12.68;;;10.70;99.90;;;;;;5093859;27;20414;-80
2023/10/24 03:32:47;;;;;;;22.10;12.88;;;;;;;;;;5109765;27;20536;-80
2023/10/24 03:35:17;;;;;;;25.90;13.02;;;;;;;;;;5075987;27;20489;-80
2023/10/24 03:37:43;;;;;;;25.45;13.20;;;;;;;;;;5117969;27;20408;-79
2023/10/24 03:40:09;;;;;;;24.23;12.55;;;;;;;;;;5116988;27;20929;-79
2023/10/24 03:42:35;;;;;;;22.20;12.27;;;;;;;;;;5082224;28;20456;-79
2023/10/24 03:45:02;;;;;;;23.75;13.02;;;;;;;;;;5098249;27;20407;-79
2023/10/24 03:47:28;;;;;;;23.38;12.65;;;;;;;;;;5112486;27;20430;-79
2023/10/24 03:49:54;;;;;;;20.08;11.43;;;;;;;;;;5114285;27;20490;-80
2023/10/24 03:52:20;;;;;;;21.08;11.70;;;;;;;;;;5113005;27;20902;-79
2023/10/24 03:54:46;;;;;;;20.30;11.55;;;;;;;;;;5080906;27;20470;-75
2023/10/24 03:57:12;;;;;;;24.00;12.02;;;;;;;;;;5110320;27;20406;-76
2023/10/24 03:59:38;;;;;;;21.63;11.85;;;;;;;;;;5095211;27;20394;-76
2023/10/24 04:02:04;;;;;;;21.63;12.32;;;;;;;;;;5093622;27;20440;-76
2023/10/24 04:04:30;;;;;;;21.48;12.52;;;;;;;;;;5120409;27;20895;-75
2023/10/24 04:06:56;;;;;;;23.50;12.75;;;;;;;;;;5083594;27;20454;-76
2023/10/24 04:09:22;;;;;;;23.13;12.82;;;;;;;;;;5100444;27;20398;-76
2023/10/24 04:11:49;;;;;;;24.17;13.18;;;;;;;;;;5100511;27;20813;-76
2023/10/24 04:14:15;;;;;;;23.08;12.80;;;;;;;;;;5100049;27;20433;-76
2023/10/24 04:16:41;;;;;;;23.08;13.43;;;;;;;;;;5098464;27;20424;-77
2023/10/24 04:19:07;;;;;;;27.47;13.97;;;;;;;;;;5099269;27;20488;-77
2023/10/24 04:21:34;;;;;;;29.65;15.32;;;;;;;;;;5101740;28;20453;-78
2023/10/24 04:24:00;;;;;;;28.90;14.77;;;;;;;;;;5105409;27;20434;-78
2023/10/24 04:26:26;;;;;;;27.98;14.23;;;;;;;;;;5082491;28;20915;-78
2023/10/24 04:28:52;;;;;;;31.15;15.85;;;11.00;99.90;;;;;;5117151;27;20409;-77
2023/10/24 04:31:18;;;;;;;34.40;16.50;;;;;;;;;;5123799;27;20511;-76
2023/10/24 04:33:45;;;;;;;30.38;15.32;;;;;;;;;;5109504;27;20424;-77
2023/10/24 04:36:11;;;;;;;29.00;15.98;;;;;;;;;;5121892;27;20540;-76
2023/10/24 04:38:37;;;;;;;32.45;16.75;;;;;;;;;;5123795;27;20536;-77
2023/10/24 04:41:03;;;;;;;32.65;17.20;;;;;;;;;;5120419;27;20389;-77
2023/10/24 04:43:29;;;;;;;32.97;16.73;;;;;;;;;;5118723;27;20505;-78
2023/10/24 04:45:55;;;;;;;35.38;18.00;;;;;;;;;;5100985;27;20678;-76
2023/10/24 04:48:21;;;;;;;33.28;17.15;;;;;;;;;;5107228;27;20405;-77
2023/10/24 04:50:47;;;;;;;34.20;18.08;;;10.90;99.90;;;;;;5115362;27;20459;-77
2023/10/24 04:53:13;;;;;;;34.30;18.00;;;10.90;99.90;;;;;;5084006;28;20432;-77
2023/10/24 04:55:39;;;;;;;34.00;17.83;;;;;;;;;;5107410;27;20406;-78
2023/10/24 04:58:06;;;;;;;33.00;17.50;;;;;;;;;;5082192;27;20399;-79
2023/10/24 05:00:33;;;;;;;31.17;17.73;;;;;;;;;;5100693;27;20420;-79
2023/10/24 05:02:59;;;;;;;36.53;18.58;;;;;;;;;;5107120;27;20529;-79
2023/10/24 05:05:27;;;;;;;29.55;17.70;;;;;;;;;;5113732;27;20398;-78
2023/10/24 05:07:53;;;;;;;34.22;17.25;;;;;;;;;;5092646;28;20440;-78
2023/10/24 05:10:20;;;;;;;32.75;17.85;;;11.30;99.90;;;;;;5085435;27;20437;-78
2023/10/24 05:12:46;;;;;;;50.83;20.23;;;;;;;;;;5094747;28;20428;-78
2023/10/24 05:15:12;;;;;;;34.05;17.80;;;;;;;;;;5099643;27;20398;-78
2023/10/24 05:17:38;;;;;;;32.83;17.43;;;;;;;;;;5113137;27;20476;-79
2023/10/24 05:20:07;;;;;;;31.55;17.75;;;;;;;;;;5113975;27;20406;-78
2023/10/24 05:22:33;;;;;;;28.57;17.00;;;;;;;;;;5098828;27;20409;-78
2023/10/24 05:24:59;;;;;;;41.70;18.08;;;;;;;;;;5080638;27;20529;-78
2023/10/24 05:27:28;;;;;;;31.42;17.00;;;;;;;;;;5099096;27;20489;-78
2023/10/24 05:29:55;;;;;;;28.75;16.80;;;;;;;;;;5106762;27;20412;-78
2023/10/24 05:32:21;;;;;;;29.95;16.70;;;;;;;;;;5076619;27;20445;-78
2023/10/24 05:34:47;;;;;;;27.00;15.88;;;;;;;;;;5110248;27;20414;-78
2023/10/24 05:37:13;;;;;;;63.77;19.13;;;;;;;;;;5115140;27;20405;-77
2023/10/24 05:39:39;;;;;;;32.20;15.52;;;;;;;;;;5106981;27;20498;-77
2023/10/24 05:42:05;;;;;;;187.50;27.77;;;;;;;;;;5084168;28;20400;-77
2023/10/24 05:44:31;;;;;;;24.52;14.65;;;;;;;;;;5117417;27;20458;-77
2023/10/24 05:46:57;;;;;;;22.97;14.47;;;;;;;;;;5115034;27;20493;-76
2023/10/24 05:49:23;;;;;;;31.85;15.00;;;11.40;99.90;;;;;;5102922;27;20420;-77
2023/10/24 05:51:49;;;;;;;32.10;15.73;;;;;;;;;;5083956;27;20399;-77
2023/10/24 05:54:15;;;;;;;23.30;14.15;;;;;;;;;;5098004;27;20816;-77
2023/10/24 05:56:41;;;;;;;24.40;13.27;;;;;;;;;;5094272;27;20922;-77
2023/10/24 05:59:07;;;;;;;23.85;12.95;;;;;;;;;;5088097;27;20386;-77
2023/10/24 06:01:33;;;;;;;20.33;12.87;;;;;;;;;;5077876;27;20500;-77
2023/10/24 06:03:59;;;;;;;20.70;12.60;;;;;;;;;;5097487;27;20407;-77
2023/10/24 06:06:25;;;;;;;18.88;11.95;;;;;;;;;;5116851;27;20950;-78
2023/10/24 06:08:51;;;;;;;17.33;11.68;;;11.50;99.90;;;;;;5083543;27;20435;-77
2023/10/24 06:11:17;;;;;;;17.38;11.20;;;;;;;;;;5087815;27;20443;-76
2023/10/24 06:13:43;;;;;;;17.45;10.57;;;;;;;;;;5098790;28;20472;-77
2023/10/24 06:16:10;;;;;;;16.02;10.50;;;;;;;;;;5111315;28;20428;-76
2023/10/24 06:18:37;;;;;;;14.98;9.77;;;;;;;;;;5099154;27;20428;-75
2023/10/24 06:21:04;;;;;;;13.93;9.52;;;11.20;99.90;;;;;;5124419;27;20409;-75
2023/10/24 06:23:30;;;;;;;15.55;9.32;;;;;;;;;;5120744;27;20405;-76
2023/10/24 06:25:56;;;;;;;14.38;9.23;;;;;;;;;;5086603;27;20399;-76
2023/10/24 06:28:23;;;;;;;14.80;9.05;;;;;;;;;;5109951;27;20425;-76
2023/10/24 06:30:49;;;;;;;13.20;7.90;;;;;;;;;;5091038;28;20400;-76
2023/10/24 06:33:15;;;;;;;13.15;7.88;;;;;;;;;;5097593;28;20427;-77
2023/10/24 06:35:41;;;;;;;17.90;13.80;;;;;;;;;;5095336;27;20401;-74
2023/10/24 06:38:08;;;;;;;21.08;14.40;;;;;;;;;;5101853;27;20455;-76
2023/10/24 06:40:34;;;;;;;18.77;14.27;;;;;;;;;;5115593;28;20413;-75
2023/10/24 06:43:05;;;;;;;22.88;15.00;;;;;;;;;;5108598;28;20420;-76
2023/10/24 06:45:31;;;;;;;19.77;14.27;;;11.20;99.90;;;;;;5105472;27;20421;-75
2023/10/24 06:47:58;;;;;;;21.00;14.55;;;;;;;;;;5099924;27;20495;-76
2023/10/24 06:50:24;;;;;;;23.17;15.65;;;;;;;;;;5100865;27;20445;-75
2023/10/24 06:52:49;;;;;;;23.48;16.70;;;11.00;99.90;;;;;;5087218;28;20475;-76
2023/10/24 06:55:15;;;;;;;25.77;16.87;;;;;;;;;;5097503;28;20403;-76
2023/10/24 06:57:41;;;;;;;26.75;16.73;;;;;;;;;;5084559;28;20737;-75
2023/10/24 07:00:08;;;;;;;18.15;12.38;;;;;;;;;;5102722;28;20388;-76
2023/10/24 07:02:34;;;;;;;20.98;15.43;;;11.30;99.90;;;;;;5104031;28;20418;-75
2023/10/24 07:05:00;;;;;;;29.90;15.07;;;;;;;;;;5079300;28;20423;-81
2023/10/24 07:07:27;;;;;;;24.83;15.90;;;;;;;;;;5128082;27;20397;-81
2023/10/24 07:09:53;;;;;;;23.45;16.17;;;;;;;;;;5096392;27;20493;-82
2023/10/24 07:12:19;;;;;;;21.73;15.05;;;;;;;;;;5116282;27;20408;-81
2023/10/24 07:14:45;;;;;;;22.60;14.57;;;;;;;;;;5130509;27;20412;-80
2023/10/24 07:17:11;;;;;;;22.17;15.07;;;;;;;;;;5102591;28;20432;-82
2023/10/24 07:19:37;;;;;;;21.10;14.10;;;;;;;;;;5107716;27;20745;-82
2023/10/24 07:22:03;;;;;;;20.08;13.43;;;;;;;;;;5111014;28;20403;-83
2023/10/24 07:24:29;;;;;;;23.10;13.57;;;;;;;;;;5086689;27;20502;-83
2023/10/24 07:26:55;;;;;;;19.38;13.18;;;;;;;;;;5098218;28;20892;-83
2023/10/24 07:29:23;;;;;;;19.27;12.90;;;;;;;;;;5070232;27;20466;-83
2023/10/24 07:31:49;;;;;;;18.77;13.00;;;;;;;;;;5103267;28;20405;-82
2023/10/24 07:34:15;;;;;;;19.55;14.02;;;;;;;;;;5102389;28;21247;-83
2023/10/24 07:36:41;;;;;;;20.50;13.48;;;;;;;;;;5101939;28;20463;-82
2023/10/24 07:39:07;;;;;;;21.33;14.85;;;;;;;;;;5080210;27;20408;-82
2023/10/24 07:41:33;;;;;;;21.00;14.13;;;;;;;;;;5082724;27;20395;-82
2023/10/24 07:43:59;;;;;;;20.40;15.02;;;;;;;;;;5079193;27;20802;-83
2023/10/24 07:46:25;;;;;;;22.50;14.43;;;;;;;;;;5107099;27;20417;-83
2023/10/24 07:48:52;;;;;;;22.75;14.57;;;;;;;;;;5107098;27;20413;-83
2023/10/24 07:51:19;;;;;;;22.05;15.40;;;;;;;;;;5106042;27;20410;-82
2023/10/24 07:53:45;;;;;;;24.00;16.08;;;;;;;;;;5096930;27;20514;-83
2023/10/24 07:56:11;;;;;;;23.23;16.15;;;;;;;;;;5100655;27;20876;-83
2023/10/24 07:58:37;;;;;;;20.65;14.55;;;;;;;;;;5126878;27;20430;-83
2023/10/24 08:01:04;;;;;;;26.02;15.25;;;11.30;99.90;;;;;;5100746;27;20391;-82
2023/10/24 08:03:30;;;;;;;20.15;14.18;;;11.40;99.90;;;;;;5101583;27;20420;-82
2023/10/24 08:05:56;;;;;;;22.17;13.73;;;;;;;;;;5121314;27;20406;-83
2023/10/24 08:08:22;;;;;;;19.65;13.70;;;;;;;;;;5117549;27;20886;-83
2023/10/24 08:10:48;;;;;;;21.63;14.18;;;;;;;;;;5117025;27;20438;-84
2023/10/24 08:13:14;;;;;;;19.35;13.70;;;;;;;;;;5119034;27;20418;-83
2023/10/24 08:15:40;;;;;;;19.88;13.23;;;;;;;;;;5117906;27;20402;-83
2023/10/24 08:18:06;;;;;;;19.65;13.38;;;;;;;;;;5117959;27;20393;-83
2023/10/24 08:20:32;;;;;;;20.42;13.88;;;;;;;;;;5086567;28;20900;-83
2023/10/24 08:22:58;;;;;;;20.35;14.15;;;;;;;;;;5104745;27;20483;-82
2023/10/24 08:25:25;;;;;;;18.67;13.55;;;;;;;;;;5083769;27;20398;-83
2023/10/24 08:27:51;;;;;;;21.30;14.50;;;;;;;;;;5117379;27;20426;-76
2023/10/24 08:30:16;;;;;;;21.63;14.87;;;11.10;99.90;;;;;;5078966;27;20431;-75
2023/10/24 08:32:42;;;;;;;22.13;15.43;;;;;;;;;;5106157;27;20531;-75
2023/10/24 08:35:09;;;;;;;23.48;15.70;;;;;;;;;;5127805;27;20404;-76
2023/10/24 08:37:35;;;;;;;23.38;16.10;;;;;;;;;;5092382;27;20419;-77
2023/10/24 08:40:02;;;;;;;24.33;15.68;;;;;;;;;;5117827;27;20430;-76
2023/10/24 08:42:30;;;;;;;27.85;17.55;;;;;;;;;;5099907;27;20401;-75
2023/10/24 08:44:57;;;;;;;26.15;16.40;;;;;;;;;;5084063;27;20400;-76
2023/10/24 08:47:23;;;;;;;26.17;16.40;;;;;;;;;;5112982;27;20462;-76
2023/10/24 08:49:51;;;;;;;27.42;17.67;;;11.00;99.90;;;;;;5098347;27;20406;-76
2023/10/24 08:52:17;;;;;;;30.77;18.30;;;;;;;;;;5094151;27;20404;-76
2023/10/24 08:54:43;;;;;;;30.88;18.75;;;;;;;;;;5074582;28;20397;-76
2023/10/24 08:57:09;;;;;;;31.83;19.10;;;;;;;;;;5087749;28;20435;-76
2023/10/24 08:59:38;;;;;;;28.17;17.08;;;10.90;99.90;;;;;;5113872;27;20420;-76
2023/10/24 09:02:04;;;;;;;28.92;17.92;;;;;;;;;;5119795;27;20399;-77
2023/10/24 09:04:33;;;;;;;29.92;18.15;;;;;;;;;;5082567;27;20419;-76
2023/10/24 09:06:59;;;;;;;27.20;17.48;;;;;;;;;;5091777;27;20418;-76
2023/10/24 09:09:25;;;;;;;28.45;17.40;;;;;;;;;;5086869;27;20416;-77
2023/10/24 09:12:03;;;;;;;27.83;17.58;;;;;;;;;;5108207;27;21279;-77
2023/10/24 09:14:29;;;;;;;26.90;16.52;;;;;;;;;;5095417;27;20921;-77
2023/10/24 09:17:06;;;;;;;23.33;16.35;;;11.20;99.90;;;;;;5100781;27;20431;-77
2023/10/24 09:19:32;;;;;;;24.40;16.17;;;;;;;;;;5096590;28;20768;-77
2023/10/24 09:21:59;;;;;;;24.73;16.65;;;;;;;;;;5103871;27;20446;-77
2023/10/24 09:24:26;;;;;;;25.00;15.85;;;;;;;;;;5100287;27;20534;-77
2023/10/24 09:26:54;;;;;;;23.65;15.98;;;11.50;99.90;;;;;;5089341;27;20796;-78
2023/10/24 09:29:20;;;;;;;27.48;17.77;;;;;;;;;;5113873;27;20463;-76
2023/10/24 09:31:49;;;;;;;24.27;16.33;;;11.10;99.90;;;;;;5102498;27;20404;-77
2023/10/24 09:34:16;;;;;;;22.83;16.47;;;;;;;;;;5102053;27;20417;-76
2023/10/24 09:36:43;;;;;;;26.67;15.55;;;;;;;;;;5095466;28;20397;-77
2023/10/24 09:39:12;;;;;;;25.27;17.83;;;11.30;99.90;;;;;;5111795;27;20418;-77
2023/10/24 09:41:42;;;;;;;22.02;15.25;;;;;;;;;;5112511;27;20465;-77
2023/10/24 09:44:08;;;;;;;22.70;15.17;;;11.40;99.90;;;;;;5115543;27;20511;-78
2023/10/24 09:46:36;;;;;;;23.38;15.32;;;11.30;99.90;;;;;;5095468;28;20398;-77
2023/10/24 09:49:03;;;;;;;21.92;15.40;;;;;;;;;;5121159;27;20908;-77
2023/10/24 09:51:31;;;;;;;23.35;15.13;;;;;;;;;;5101816;28;20430;-77
2023/10/24 09:53:57;;;;;;;21.52;14.82;;;;;;;;;;5103092;27;20430;-77
2023/10/24 09:56:24;;;;;;;22.52;15.98;;;11.20;99.90;;;;;;5092267;27;20759;-76
2023/10/24 09:58:51;;;;;;;23.23;15.68;;;;;;;;;;5102230;27;20904;-77
2023/10/24 10:01:17;;;;;;;24.08;16.58;;;;;;;;;;5080353;28;20402;-77
2023/10/24 10:03:44;;;;;;;25.45;16.13;;;;;;;;;;5101605;27;20409;-76
2023/10/24 10:06:11;;;;;;;26.38;16.80;;;;;;;;;;5086963;27;20415;-76
2023/10/24 10:08:37;;;;;;;27.20;16.50;;;11.60;99.90;;;;;;5094701;27;20418;-76
2023/10/24 10:11:04;;;;;;;25.55;15.07;;;;;;;;;;5074066;27;20873;-76
2023/10/24 10:13:31;;;;;;;22.38;14.95;;;;;;;;;;5091688;27;20450;-75
2023/10/24 10:16:06;;;;;;;21.13;14.73;;;;;;;;;;5087253;28;20411;-77
2023/10/24 10:18:39;;;;;;;24.40;15.07;;;;;;;;;;5087796;27;20422;-76
2023/10/24 10:21:20;;;;;;;20.90;14.57;;;;;;;;;;5109060;27;20514;-76
2023/10/24 10:23:46;;;;;;;20.08;13.73;;;;;;;;;;5101818;27;20397;-76
2023/10/24 10:26:15;;;;;;;21.98;14.18;;;;;;;;;;5102199;27;20406;-76
2023/10/24 10:28:47;;;;;;;19.43;14.40;;;;;;;;;;5099169;28;20954;-76
2023/10/24 10:31:13;;;;;;;20.83;13.80;;;;;;;;;;5104310;27;20410;-76
2023/10/24 10:33:40;;;;;;;20.65;14.65;;;;;;;;;;5109230;27;20414;-76
2023/10/24 10:36:09;;;;;;;19.90;14.27;;;11.40;99.90;;;;;;5111992;27;20494;-75
2023/10/24 10:38:39;;;;;;;19.30;13.90;;;11.50;99.90;;;;;;5078523;27;20478;-76
2023/10/24 10:41:23;;;;;;;22.17;14.65;;;;;;;;;;5104953;28;20408;-76
2023/10/24 10:43:50;;;;;;;19.98;13.82;;;11.70;99.90;;;;;;5086460;28;20729;-75
2023/10/24 10:46:26;;;;;;;20.23;14.32;;;11.50;99.90;;;;;;5091254;28;20400;-75
2023/10/24 10:48:56;;;;;;;20.55;14.57;;;11.60;99.90;;;;;;5087091;28;20422;-75
2023/10/24 10:51:28;;;;;;;18.67;14.00;;;11.70;99.90;;;;;;5092604;27;21125;-75
2023/10/24 10:54:10;;;;;;;18.60;13.65;;;11.70;99.90;;;;;;5104409;27;20983;-75
2023/10/24 10:56:39;;;;;;;18.33;13.93;;;11.80;99.90;;;;;;5113024;28;20434;-75
2023/10/24 10:59:05;;;;;;;18.20;14.10;;;;;;;;;;5081404;28;20912;-75
2023/10/24 11:01:49;;;;;;;19.70;14.05;;;11.60;99.90;;;;;;5099744;28;20784;-75
2023/10/24 11:04:15;;;;;;;20.02;14.90;;;;;;;;;;5093274;28;20404;-75
2023/10/24 11:06:50;;;;;;;19.92;14.82;;;;;;;;;;5108403;28;20762;-75
2023/10/24 11:09:16;;;;;;;20.05;14.23;;;;;;;;;;5101323;27;20527;-75
2023/10/24 11:11:42;;;;;;;21.73;14.63;;;;;;;;;;5097741;27;20926;-75
2023/10/24 11:14:19;;;;;;;21.10;14.38;;;11.70;99.90;;;;;;5102753;28;20416;-75
2023/10/24 11:16:49;;;;;;;20.05;15.35;;;;;;;;;;5080778;28;20396;-75
2023/10/24 11:19:20;;;;;;;23.25;16.33;;;;;;;;;;5090782;27;20728;-75
2023/10/24 11:21:51;;;;;;;19.83;15.13;;;12.20;99.90;;;;;;5108437;27;20392;-75
2023/10/24 11:24:21;;;;;;;22.95;17.15;;;12.00;99.90;;;;;;5084388;28;20400;-75
2023/10/24 11:27:00;;;;;;;19.48;15.13;;;;;;;;;;5104224;27;20536;-76
2023/10/24 11:29:27;;;;;;;20.92;15.02;;;;;;;;;;5109024;27;20890;-75
2023/10/24 11:31:53;;;;;;;18.35;13.90;;;;;;;;;;5096107;27;20400;-75
2023/10/24 11:34:19;;;;;;;18.98;14.68;;;;;;;;;;5109819;27;20486;-75
2023/10/24 11:36:46;;;;;;;20.10;15.03;;;;;;;;;;5112034;28;20396;-75
2023/10/24 11:39:14;;;;;;;18.20;14.50;;;12.10;99.90;;;;;;5111687;28;20612;-75
2023/10/24 11:41:42;;;;;;;19.87;14.43;;;12.20;99.90;;;;;;5115196;27;20801;-75
2023/10/24 11:44:10;;;;;;;18.13;13.05;;;;;;;;;;5108612;27;20925;-75
2023/10/24 11:46:39;;;;;;;19.17;14.48;;;12.10;99.90;;;;;;5112365;27;20403;-75
2023/10/24 11:49:05;;;;;;;18.80;13.98;;;;;;;;;;5111439;28;20415;-75
2023/10/24 11:51:31;;;;;;;17.20;14.03;;;12.20;99.90;;;;;;5102494;27;20963;-76
2023/10/24 11:54:03;;;;;;;18.27;13.70;;;12.20;99.90;;;;;;5111303;27;20412;-75
2023/10/24 11:56:30;;;;;;;18.25;14.52;;;;;;;;;;5113370;27;20461;-74
2023/10/24 11:58:57;;;;;;;18.67;14.25;;;;;;;;;;5111883;27;20424;-75
2023/10/24 12:01:24;;;;;;;17.50;13.90;;;;;;;;;;5101022;27;20901;-76
2023/10/24 12:03:56;;;;;;;16.95;13.80;;;12.30;99.90;;;;;;5087490;27;20407;-76
2023/10/24 12:06:22;;;;;;;16.50;13.73;;;12.50;99.90;;;;;;5108855;27;20426;-76
2023/10/24 12:08:49;;;;;;;17.70;13.38;;;12.60;99.90;;;;;;5095492;28;20453;-75
2023/10/24 12:11:15;;;;;;;16.73;13.63;;;;;;;;;;5101788;27;20513;-76
2023/10/24 12:13:41;;;;;;;17.30;13.55;;;;;;;;;;5084372;27;20917;-75
2023/10/24 12:16:07;;;;;;;17.23;12.93;;;12.40;99.90;;;;;;5116835;27;20448;-76
2023/10/24 12:18:33;;;;;;;17.63;13.50;;;;;;;;;;5084578;27;20490;-76
2023/10/24 12:20:59;;;;;;;16.00;13.15;;;;;;;;;;5101658;27;20428;-76
2023/10/24 12:23:26;;;;;;;17.15;13.48;;;12.40;99.90;;;;;;5101398;27;20457;-76
2023/10/24 12:25:55;;;;;;;16.15;12.57;;;;;;;;;;5098222;27;20451;-75
2023/10/24 12:28:21;;;;;;;15.90;13.00;;;;;;;;;;5097839;27;20402;-75
2023/10/24 12:30:47;;;;;;;15.75;12.63;;;;;;;;;;5096940;27;20398;-75
2023/10/24 12:33:13;;;;;;;16.52;12.98;;;;;;;;;;5087601;27;20424;-75
2023/10/24 12:35:39;;;;;;;14.97;13.07;;;12.50;99.90;;;;;;5106481;27;20482;-76
2023/10/24 12:38:05;;;;;;;15.40;12.53;;;;;;;;;;5111397;27;20499;-75
2023/10/24 12:40:32;;;;;;;15.25;12.23;;;;;;;;;;5099317;27;20869;-75
2023/10/24 12:42:58;;;;;;;15.38;11.70;;;;;;;;;;5130300;27;20406;-76
2023/10/24 12:45:24;;;;;;;14.10;11.83;;;;;;;;;;5114085;27;20444;-75
2023/10/24 12:47:51;;;;;;;14.75;11.73;;;;;;;;;;5111916;27;20402;-75
2023/10/24 12:50:18;;;;;;;13.93;11.70;;;;;;;;;;5115041;27;20415;-76
2023/10/24 12:52:44;;;;;;;15.02;12.30;;;;;;;;;;5099402;27;20414;-75
2023/10/24 12:55:10;;;;;;;13.32;10.77;;;;;;;;;;5113365;27;20499;-75
2023/10/24 12:57:36;;;;;;;13.68;10.77;;;;;;;;;;5126406;27;20432;-75
2023/10/24 13:00:03;;;;;;;13.80;11.32;;;;;;;;;;5104790;27;20800;-76
2023/10/24 13:02:29;;;;;;;15.30;10.93;;;12.20;99.90;;;;;;5108582;27;20394;-75
2023/10/24 13:04:55;;;;;;;14.80;11.13;;;;;;;;;;5095973;27;20406;-76
2023/10/24 13:07:23;;;;;;;14.00;10.80;;;;;;;;;;5080340;27;20402;-75
2023/10/24 13:09:49;;;;;;;14.68;10.57;;;;;;;;;;5109564;27;20443;-75
2023/10/24 13:12:15;;;;;;;12.68;10.27;;;;;;;;;;5096769;27;20398;-75
2023/10/24 13:14:41;;;;;;;14.25;11.80;;;;;;;;;;5091628;27;20419;-76
2023/10/24 13:17:07;;;;;;;14.88;11.25;;;;;;;;;;5098610;27;20776;-75
2023/10/24 13:19:34;;;;;;;12.27;10.82;;;;;;;;;;5086834;28;20815;-75
2023/10/24 13:22:00;;;;;;;15.65;10.60;;;;;;;;;;5096835;27;20747;-75
2023/10/24 13:24:26;;;;;;;12.90;10.60;;;;;;;;;;5084205;28;20404;-75
2023/10/24 13:26:52;;;;;;;14.57;10.15;;;;;;;;;;5086823;27;20394;-76
2023/10/24 13:29:22;;;;;;;12.57;10.50;;;;;;;;;;5105405;27;20463;-76
2023/10/24 13:31:48;;;;;;;12.35;9.95;;;12.70;99.90;;;;;;5108401;27;20403;-76
2023/10/24 13:34:16;;;;;;;13.20;9.93;;;;;;;;;;5096827;27;20459;-76
2023/10/24 13:36:43;;;;;;;11.53;9.37;;;;;;;;;;5088323;27;20951;-76
2023/10/24 13:39:10;;;;;;;13.00;9.48;;;;;;;;;;5091738;28;20428;-76
2023/10/24 13:41:37;;;;;;;12.02;9.65;;;;;;;;;;5100598;27;20449;-76
2023/10/24 13:44:03;;;;;;;12.13;9.32;;;;;;;;;;5096015;27;20403;-75
2023/10/24 13:46:30;;;;;;;13.70;10.00;;;;;;;;;;5103429;27;20436;-76
2023/10/24 13:48:57;;;;;;;11.30;9.13;;;;;;;;;;5091653;27;20398;-75
2023/10/24 13:51:23;;;;;;;11.38;8.88;;;;;;;;;;5108287;27;20407;-76
2023/10/24 13:53:50;;;;;;;11.70;9.60;;;12.50;99.90;;;;;;5090352;27;20418;-75